METAR AND TAF INFORMATION
METAR FOR UKBB
ADDS - METARS form results

(0256 UTC 26 April 2019)
Data provider http://aviationweather.gov/metar/data/
 
METAR text: UKBB 260230Z 18003MPS CAVOK 06/02 Q1022 R88/D NOSIG
Conditions at: UKBB (BORISPOL'/KIEV , UA) observed 0230 UTC 26 April 2019
Temperature: 6.0°C (43°F)
Dewpoint: 2.0°C (36°F) [RH = 75%]
Pressure (altimeter): 30.18 inches Hg (1022.0 mb)
Winds: from the S (180 degrees) at 7 MPH (6 knots; 3.1 m/s)
Visibility: 6 or more miles (10+ km)
Ceiling: ceiling and visibility are OK
Clouds: unknown
Weather: no significant weather observed at this time

METAR text: UKBB 260200Z 18002MPS CAVOK 07/02 Q1022 R88/D NOSIG
Conditions at: UKBB (BORISPOL'/KIEV , UA) observed 0200 UTC 26 April 2019
Temperature: 7.0°C (45°F)
Dewpoint: 2.0°C (36°F) [RH = 70%]
Pressure (altimeter): 30.18 inches Hg (1022.0 mb)
Winds: from the S (180 degrees) at 5 MPH (4 knots; 2.1 m/s)
Visibility: 6 or more miles (10+ km)
Ceiling: ceiling and visibility are OK
Clouds: unknown
Weather: no significant weather observed at this time

Forecast for: UKBB (BORISPOL'/KIEV , UA)
Text: TAF UKBB 252301Z 2600/2624 VRB01MPS 9999 SCT040
Forecast period: 0000 to 0600 UTC 26 April 2019
Forecast type: FROM: standard forecast or significant change
Winds: variable direction winds at 2 MPH (2 knots; 1.0 m/s)
Visibility: 6 or more miles 10+ km)
Ceiling: at least 12,000 feet AGL
Clouds: scattered clouds at 4000 feet AGL
Weather: no significant weather forecast for this period
Text: BECMG 2606/2608 17005G10MPS
Forecast period: 0600 UTC 26 April 2019 to 0000 UTC 27 April 2019
Forecast type: BECOMING: Conditions expected to become as follows by 0800 UTC 26 April 2019
Winds: from the S (170 degrees) at 12 MPH (10 knots; 5.1 m/s)
gusting to 22 MPH (19 knots; 9.8 m/s)
Visibility: 6 or more miles 10+ km)
Ceiling: at least 12,000 feet AGL
Clouds: scattered clouds at 4000 feet AGL
Weather: no significant weather forecast for this period

 AIRPORT MAP

 RUNWAY INFORMATION

 AIRPORT FREQUENCIES
Type ATIS Name ATIS Frequency 126.7 MHZ
Type CLD Name DLV Frequency 130.275 MHZ
Type GND Name GND Frequency 118.05 MHZ
Type OPS Name OPS Frequency 131.775 MHZ
Type RDR Name KYIV RADAR Frequency 124.675 MHZ
Type TWR Name TWR Frequency 119.65 MHZ

 AIRPORT NEAR NAVIGATION AIDS
Type NDB Name Boryspil Frequency 310 KHZ
Type VOR-DME Name Boryspil Frequency 115900 KHZ
Type NDB Name Boryspil Frequency 825 KHZ
Type NDB Name Boryspil Frequency 825 KHZ
Type NDB Name Boryspil Frequency 310 KHZ



2018 Air Astana Virtual Airline